sensor_id;sensor_type;location;lat;lon;timestamp;P1;durP1;ratioP1;P2;durP2;ratioP2
16181;SDS011;8197;51.664;7.114;2024-02-15T00:02:00;53.50;;;29.80;;
16181;SDS011;8197;51.664;7.114;2024-02-15T00:07:04;65.50;;;29.83;;
16181;SDS011;8197;51.664;7.114;2024-02-15T00:12:08;54.80;;;31.57;;
16181;SDS011;8197;51.664;7.114;2024-02-15T00:17:11;63.30;;;34.03;;
16181;SDS011;8197;51.664;7.114;2024-02-15T00:22:14;59.03;;;28.70;;
16181;SDS011;8197;51.664;7.114;2024-02-15T00:27:19;59.60;;;24.93;;
16181;SDS011;8197;51.664;7.114;2024-02-15T00:32:22;48.17;;;23.77;;
16181;SDS011;8197;51.664;7.114;2024-02-15T00:37:25;52.03;;;26.17;;
16181;SDS011;8197;51.664;7.114;2024-02-15T00:42:29;51.20;;;27.20;;
16181;SDS011;8197;51.664;7.114;2024-02-15T00:47:33;58.37;;;28.67;;
16181;SDS011;8197;51.664;7.114;2024-02-15T00:52:36;50.67;;;27.57;;
16181;SDS011;8197;51.664;7.114;2024-02-15T00:57:40;50.97;;;27.80;;
16181;SDS011;8197;51.664;7.114;2024-02-15T01:02:43;42.93;;;17.70;;
16181;SDS011;8197;51.664;7.114;2024-02-15T01:07:47;51.50;;;25.80;;
16181;SDS011;8197;51.664;7.114;2024-02-15T01:12:52;52.97;;;29.23;;
16181;SDS011;8197;51.664;7.114;2024-02-15T01:17:55;46.87;;;27.17;;
16181;SDS011;8197;51.664;7.114;2024-02-15T01:22:58;51.40;;;29.20;;
16181;SDS011;8197;51.664;7.114;2024-02-15T01:28:02;53.10;;;26.63;;
16181;SDS011;8197;51.664;7.114;2024-02-15T01:33:06;60.67;;;31.53;;
16181;SDS011;8197;51.664;7.114;2024-02-15T01:38:09;68.17;;;31.37;;
16181;SDS011;8197;51.664;7.114;2024-02-15T01:43:13;61.43;;;30.30;;
16181;SDS011;8197;51.664;7.114;2024-02-15T01:48:16;65.00;;;29.00;;
16181;SDS011;8197;51.664;7.114;2024-02-15T01:53:19;58.53;;;23.17;;
16181;SDS011;8197;51.664;7.114;2024-02-15T01:58:26;46.73;;;22.33;;
16181;SDS011;8197;51.664;7.114;2024-02-15T02:03:33;48.33;;;19.00;;
16181;SDS011;8197;51.664;7.114;2024-02-15T02:08:37;45.30;;;20.53;;
16181;SDS011;8197;51.664;7.114;2024-02-15T02:13:41;42.33;;;19.17;;
16181;SDS011;8197;51.664;7.114;2024-02-15T02:18:44;42.87;;;20.43;;
16181;SDS011;8197;51.664;7.114;2024-02-15T02:23:48;46.97;;;22.37;;
16181;SDS011;8197;51.664;7.114;2024-02-15T02:28:56;52.90;;;22.47;;
16181;SDS011;8197;51.664;7.114;2024-02-15T02:34:00;49.27;;;22.53;;
16181;SDS011;8197;51.664;7.114;2024-02-15T02:39:04;50.23;;;21.50;;
16181;SDS011;8197;51.664;7.114;2024-02-15T02:44:10;52.40;;;20.53;;
16181;SDS011;8197;51.664;7.114;2024-02-15T02:49:12;49.67;;;20.37;;
16181;SDS011;8197;51.664;7.114;2024-02-15T02:54:16;39.43;;;17.07;;
16181;SDS011;8197;51.664;7.114;2024-02-15T02:59:20;42.33;;;17.37;;
16181;SDS011;8197;51.664;7.114;2024-02-15T03:04:23;41.00;;;16.30;;
16181;SDS011;8197;51.664;7.114;2024-02-15T03:09:26;36.80;;;13.73;;
16181;SDS011;8197;51.664;7.114;2024-02-15T03:14:32;33.20;;;12.23;;
16181;SDS011;8197;51.664;7.114;2024-02-15T03:19:36;45.60;;;12.00;;
16181;SDS011;8197;51.664;7.114;2024-02-15T03:24:39;55.27;;;14.30;;
16181;SDS011;8197;51.664;7.114;2024-02-15T03:29:43;36.43;;;11.00;;
16181;SDS011;8197;51.664;7.114;2024-02-15T03:34:48;27.90;;;9.77;;
16181;SDS011;8197;51.664;7.114;2024-02-15T03:39:51;30.03;;;10.50;;
16181;SDS011;8197;51.664;7.114;2024-02-15T03:44:55;31.60;;;8.57;;
16181;SDS011;8197;51.664;7.114;2024-02-15T03:49:58;32.93;;;8.47;;
16181;SDS011;8197;51.664;7.114;2024-02-15T03:55:01;27.67;;;8.53;;
16181;SDS011;8197;51.664;7.114;2024-02-15T04:00:08;32.50;;;8.93;;
16181;SDS011;8197;51.664;7.114;2024-02-15T04:05:13;38.67;;;7.47;;
16181;SDS011;8197;51.664;7.114;2024-02-15T04:10:16;29.73;;;7.50;;
16181;SDS011;8197;51.664;7.114;2024-02-15T04:15:21;25.07;;;7.43;;
16181;SDS011;8197;51.664;7.114;2024-02-15T04:20:24;29.93;;;7.93;;
16181;SDS011;8197;51.664;7.114;2024-02-15T04:25:27;29.37;;;7.17;;
16181;SDS011;8197;51.664;7.114;2024-02-15T04:30:33;33.97;;;7.50;;
16181;SDS011;8197;51.664;7.114;2024-02-15T04:35:39;31.23;;;6.70;;
16181;SDS011;8197;51.664;7.114;2024-02-15T04:40:42;30.07;;;6.23;;
16181;SDS011;8197;51.664;7.114;2024-02-15T04:45:46;27.77;;;5.10;;
16181;SDS011;8197;51.664;7.114;2024-02-15T04:50:49;26.10;;;5.57;;
16181;SDS011;8197;51.664;7.114;2024-02-15T04:55:53;27.00;;;5.10;;
16181;SDS011;8197;51.664;7.114;2024-02-15T05:00:57;36.37;;;5.70;;
16181;SDS011;8197;51.664;7.114;2024-02-15T05:06:01;26.10;;;6.87;;
16181;SDS011;8197;51.664;7.114;2024-02-15T05:11:06;30.50;;;5.70;;
16181;SDS011;8197;51.664;7.114;2024-02-15T05:16:15;23.30;;;4.63;;
16181;SDS011;8197;51.664;7.114;2024-02-15T05:21:18;20.53;;;3.80;;
16181;SDS011;8197;51.664;7.114;2024-02-15T05:26:22;21.47;;;4.60;;
16181;SDS011;8197;51.664;7.114;2024-02-15T05:31:26;21.90;;;4.00;;
16181;SDS011;8197;51.664;7.114;2024-02-15T05:36:29;22.03;;;3.60;;
16181;SDS011;8197;51.664;7.114;2024-02-15T05:41:32;22.47;;;3.70;;
16181;SDS011;8197;51.664;7.114;2024-02-15T05:46:36;23.00;;;3.73;;
16181;SDS011;8197;51.664;7.114;2024-02-15T05:51:41;20.60;;;3.70;;
16181;SDS011;8197;51.664;7.114;2024-02-15T05:56:45;21.60;;;4.13;;
16181;SDS011;8197;51.664;7.114;2024-02-15T06:01:54;20.83;;;4.20;;
16181;SDS011;8197;51.664;7.114;2024-02-15T06:06:57;20.00;;;4.43;;
16181;SDS011;8197;51.664;7.114;2024-02-15T06:12:02;27.60;;;4.33;;
16181;SDS011;8197;51.664;7.114;2024-02-15T06:17:07;30.13;;;3.90;;
16181;SDS011;8197;51.664;7.114;2024-02-15T06:22:12;15.53;;;2.77;;
16181;SDS011;8197;51.664;7.114;2024-02-15T06:27:15;21.53;;;3.70;;
16181;SDS011;8197;51.664;7.114;2024-02-15T06:32:20;20.83;;;3.87;;
16181;SDS011;8197;51.664;7.114;2024-02-15T06:37:40;23.63;;;3.50;;
16181;SDS011;8197;51.664;7.114;2024-02-15T06:43:00;20.00;;;3.00;;
16181;SDS011;8197;51.664;7.114;2024-02-15T06:48:06;20.20;;;3.30;;
16181;SDS011;8197;51.664;7.114;2024-02-15T06:53:12;23.47;;;3.60;;
16181;SDS011;8197;51.664;7.114;2024-02-15T06:58:14;23.43;;;3.17;;
16181;SDS011;8197;51.664;7.114;2024-02-15T07:03:19;20.27;;;3.33;;
16181;SDS011;8197;51.664;7.114;2024-02-15T07:08:24;22.00;;;3.07;;
16181;SDS011;8197;51.664;7.114;2024-02-15T07:13:26;18.80;;;3.63;;
16181;SDS011;8197;51.664;7.114;2024-02-15T07:18:31;22.13;;;4.83;;
16181;SDS011;8197;51.664;7.114;2024-02-15T07:23:34;21.93;;;3.50;;
16181;SDS011;8197;51.664;7.114;2024-02-15T07:28:39;27.00;;;3.53;;
16181;SDS011;8197;51.664;7.114;2024-02-15T07:33:43;20.20;;;3.93;;
16181;SDS011;8197;51.664;7.114;2024-02-15T07:38:46;20.43;;;4.67;;
16181;SDS011;8197;51.664;7.114;2024-02-15T07:43:49;23.37;;;4.87;;
16181;SDS011;8197;51.664;7.114;2024-02-15T07:48:56;33.93;;;4.93;;
16181;SDS011;8197;51.664;7.114;2024-02-15T07:54:01;22.70;;;4.50;;
16181;SDS011;8197;51.664;7.114;2024-02-15T07:59:04;19.00;;;3.80;;
16181;SDS011;8197;51.664;7.114;2024-02-15T08:04:10;18.57;;;3.80;;
16181;SDS011;8197;51.664;7.114;2024-02-15T08:09:14;21.00;;;4.00;;
16181;SDS011;8197;51.664;7.114;2024-02-15T08:14:19;19.00;;;4.40;;
16181;SDS011;8197;51.664;7.114;2024-02-15T08:19:23;33.03;;;5.80;;
16181;SDS011;8197;51.664;7.114;2024-02-15T08:24:30;24.93;;;5.77;;
16181;SDS011;8197;51.664;7.114;2024-02-15T08:29:33;20.30;;;4.70;;
16181;SDS011;8197;51.664;7.114;2024-02-15T08:34:37;26.30;;;4.87;;
16181;SDS011;8197;51.664;7.114;2024-02-15T08:39:40;29.83;;;5.37;;
16181;SDS011;8197;51.664;7.114;2024-02-15T08:44:46;18.77;;;3.63;;
16181;SDS011;8197;51.664;7.114;2024-02-15T08:49:50;22.70;;;3.90;;
16181;SDS011;8197;51.664;7.114;2024-02-15T08:54:53;19.53;;;3.87;;
16181;SDS011;8197;51.664;7.114;2024-02-15T08:59:58;19.80;;;3.50;;
16181;SDS011;8197;51.664;7.114;2024-02-15T09:05:02;26.10;;;4.03;;
16181;SDS011;8197;51.664;7.114;2024-02-15T09:10:06;24.90;;;4.40;;
16181;SDS011;8197;51.664;7.114;2024-02-15T09:15:11;20.80;;;4.20;;
16181;SDS011;8197;51.664;7.114;2024-02-15T09:20:15;21.17;;;3.23;;
16181;SDS011;8197;51.664;7.114;2024-02-15T09:25:20;22.20;;;3.50;;
16181;SDS011;8197;51.664;7.114;2024-02-15T09:30:24;18.60;;;3.40;;
16181;SDS011;8197;51.664;7.114;2024-02-15T09:35:31;30.80;;;3.40;;
16181;SDS011;8197;51.664;7.114;2024-02-15T09:40:34;26.43;;;4.33;;
16181;SDS011;8197;51.664;7.114;2024-02-15T09:45:37;19.40;;;3.93;;
16181;SDS011;8197;51.664;7.114;2024-02-15T09:50:41;18.17;;;3.87;;
16181;SDS011;8197;51.664;7.114;2024-02-15T09:55:47;19.87;;;3.70;;
16181;SDS011;8197;51.664;7.114;2024-02-15T10:00:50;28.47;;;4.47;;
16181;SDS011;8197;51.664;7.114;2024-02-15T10:05:54;20.70;;;3.50;;
16181;SDS011;8197;51.664;7.114;2024-02-15T10:11:06;23.20;;;4.00;;
16181;SDS011;8197;51.664;7.114;2024-02-15T10:16:13;17.93;;;3.33;;
16181;SDS011;8197;51.664;7.114;2024-02-15T10:21:26;15.73;;;2.90;;
16181;SDS011;8197;51.664;7.114;2024-02-15T10:26:30;15.97;;;3.03;;
16181;SDS011;8197;51.664;7.114;2024-02-15T10:31:34;17.80;;;3.30;;
16181;SDS011;8197;51.664;7.114;2024-02-15T10:36:38;22.63;;;3.63;;
16181;SDS011;8197;51.664;7.114;2024-02-15T10:41:41;25.10;;;3.90;;
16181;SDS011;8197;51.664;7.114;2024-02-15T10:46:51;20.07;;;2.93;;
16181;SDS011;8197;51.664;7.114;2024-02-15T10:52:01;20.37;;;3.13;;
16181;SDS011;8197;51.664;7.114;2024-02-15T10:57:05;23.47;;;3.43;;
16181;SDS011;8197;51.664;7.114;2024-02-15T11:02:15;22.73;;;3.37;;
16181;SDS011;8197;51.664;7.114;2024-02-15T11:07:33;19.97;;;3.03;;
16181;SDS011;8197;51.664;7.114;2024-02-15T11:12:37;22.33;;;3.67;;
16181;SDS011;8197;51.664;7.114;2024-02-15T11:17:48;18.43;;;2.93;;
16181;SDS011;8197;51.664;7.114;2024-02-15T11:22:58;25.17;;;2.77;;
16181;SDS011;8197;51.664;7.114;2024-02-15T11:33:38;19.30;;;2.70;;
16181;SDS011;8197;51.664;7.114;2024-02-15T11:38:43;24.33;;;3.00;;
16181;SDS011;8197;51.664;7.114;2024-02-15T11:43:49;19.03;;;2.40;;
16181;SDS011;8197;51.664;7.114;2024-02-15T11:48:58;25.87;;;3.73;;
16181;SDS011;8197;51.664;7.114;2024-02-15T11:54:04;21.17;;;3.63;;
16181;SDS011;8197;51.664;7.114;2024-02-15T11:59:09;18.37;;;2.90;;
16181;SDS011;8197;51.664;7.114;2024-02-15T12:04:20;18.97;;;2.93;;
16181;SDS011;8197;51.664;7.114;2024-02-15T12:09:41;22.83;;;3.07;;
16181;SDS011;8197;51.664;7.114;2024-02-15T12:15:07;20.07;;;2.63;;
16181;SDS011;8197;51.664;7.114;2024-02-15T12:20:28;21.53;;;2.57;;
16181;SDS011;8197;51.664;7.114;2024-02-15T12:25:34;15.10;;;2.03;;
16181;SDS011;8197;51.664;7.114;2024-02-15T12:30:37;18.17;;;2.60;;
16181;SDS011;8197;51.664;7.114;2024-02-15T12:35:42;19.07;;;2.77;;
16181;SDS011;8197;51.664;7.114;2024-02-15T12:40:46;18.83;;;2.23;;
16181;SDS011;8197;51.664;7.114;2024-02-15T12:45:49;17.57;;;2.40;;
16181;SDS011;8197;51.664;7.114;2024-02-15T12:50:52;18.37;;;2.40;;
16181;SDS011;8197;51.664;7.114;2024-02-15T12:55:58;18.30;;;2.53;;
16181;SDS011;8197;51.664;7.114;2024-02-15T13:01:01;30.07;;;2.60;;
16181;SDS011;8197;51.664;7.114;2024-02-15T13:06:05;17.70;;;2.90;;
16181;SDS011;8197;51.664;7.114;2024-02-15T13:11:13;18.97;;;2.53;;
16181;SDS011;8197;51.664;7.114;2024-02-15T13:16:17;18.37;;;2.37;;
16181;SDS011;8197;51.664;7.114;2024-02-15T13:21:21;17.20;;;2.57;;
16181;SDS011;8197;51.664;7.114;2024-02-15T13:26:26;19.10;;;2.70;;
16181;SDS011;8197;51.664;7.114;2024-02-15T13:31:31;27.00;;;2.53;;
16181;SDS011;8197;51.664;7.114;2024-02-15T13:36:36;23.37;;;2.20;;
16181;SDS011;8197;51.664;7.114;2024-02-15T13:41:40;16.40;;;2.33;;
16181;SDS011;8197;51.664;7.114;2024-02-15T13:46:43;16.70;;;2.20;;
16181;SDS011;8197;51.664;7.114;2024-02-15T13:51:46;16.40;;;1.57;;
16181;SDS011;8197;51.664;7.114;2024-02-15T13:56:50;15.80;;;1.60;;
16181;SDS011;8197;51.664;7.114;2024-02-15T14:01:53;17.87;;;2.27;;
16181;SDS011;8197;51.664;7.114;2024-02-15T14:06:56;23.70;;;2.10;;
16181;SDS011;8197;51.664;7.114;2024-02-15T14:12:01;20.70;;;2.43;;
16181;SDS011;8197;51.664;7.114;2024-02-15T14:17:07;20.70;;;2.30;;
16181;SDS011;8197;51.664;7.114;2024-02-15T14:22:10;18.23;;;1.87;;
16181;SDS011;8197;51.664;7.114;2024-02-15T14:27:18;17.07;;;2.20;;
16181;SDS011;8197;51.664;7.114;2024-02-15T14:32:21;17.07;;;2.07;;
16181;SDS011;8197;51.664;7.114;2024-02-15T14:37:42;18.07;;;2.13;;
16181;SDS011;8197;51.664;7.114;2024-02-15T14:42:49;18.77;;;2.10;;
16181;SDS011;8197;51.664;7.114;2024-02-15T14:47:58;25.50;;;2.40;;
16181;SDS011;8197;51.664;7.114;2024-02-15T14:53:01;19.30;;;2.43;;
16181;SDS011;8197;51.664;7.114;2024-02-15T14:58:05;19.60;;;1.57;;
16181;SDS011;8197;51.664;7.114;2024-02-15T15:03:13;18.63;;;1.40;;
16181;SDS011;8197;51.664;7.114;2024-02-15T15:08:18;15.53;;;1.93;;
16181;SDS011;8197;51.664;7.114;2024-02-15T15:17:00;15.03;;;1.43;;
16181;SDS011;8197;51.664;7.114;2024-02-15T15:22:04;20.70;;;2.23;;
16181;SDS011;8197;51.664;7.114;2024-02-15T15:27:08;19.13;;;1.90;;
16181;SDS011;8197;51.664;7.114;2024-02-15T15:32:15;19.90;;;2.53;;
16181;SDS011;8197;51.664;7.114;2024-02-15T15:37:17;14.80;;;1.50;;
16181;SDS011;8197;51.664;7.114;2024-02-15T15:42:24;14.80;;;1.60;;
16181;SDS011;8197;51.664;7.114;2024-02-15T15:47:30;15.77;;;1.70;;
16181;SDS011;8197;51.664;7.114;2024-02-15T15:52:33;17.10;;;2.00;;
16181;SDS011;8197;51.664;7.114;2024-02-15T15:57:38;15.80;;;1.63;;
16181;SDS011;8197;51.664;7.114;2024-02-15T16:02:43;15.50;;;2.00;;
16181;SDS011;8197;51.664;7.114;2024-02-15T16:07:46;18.20;;;2.20;;
16181;SDS011;8197;51.664;7.114;2024-02-15T16:12:50;18.40;;;2.13;;
16181;SDS011;8197;51.664;7.114;2024-02-15T16:17:55;15.37;;;2.03;;
16181;SDS011;8197;51.664;7.114;2024-02-15T16:22:59;16.33;;;2.30;;
16181;SDS011;8197;51.664;7.114;2024-02-15T16:28:02;17.33;;;2.70;;
16181;SDS011;8197;51.664;7.114;2024-02-15T16:33:09;21.50;;;2.30;;
16181;SDS011;8197;51.664;7.114;2024-02-15T16:38:12;18.67;;;2.50;;
16181;SDS011;8197;51.664;7.114;2024-02-15T16:43:17;19.67;;;2.17;;
16181;SDS011;8197;51.664;7.114;2024-02-15T16:48:22;16.23;;;2.10;;
16181;SDS011;8197;51.664;7.114;2024-02-15T16:53:25;20.63;;;2.47;;
16181;SDS011;8197;51.664;7.114;2024-02-15T16:58:28;18.20;;;2.70;;
16181;SDS011;8197;51.664;7.114;2024-02-15T17:03:33;19.57;;;2.60;;
16181;SDS011;8197;51.664;7.114;2024-02-15T17:08:37;20.43;;;3.07;;
16181;SDS011;8197;51.664;7.114;2024-02-15T17:13:42;15.57;;;2.17;;
16181;SDS011;8197;51.664;7.114;2024-02-15T17:18:47;20.07;;;3.37;;
16181;SDS011;8197;51.664;7.114;2024-02-15T17:23:52;23.20;;;2.90;;
16181;SDS011;8197;51.664;7.114;2024-02-15T17:28:57;17.07;;;2.70;;
16181;SDS011;8197;51.664;7.114;2024-02-15T17:34:08;18.50;;;2.27;;
16181;SDS011;8197;51.664;7.114;2024-02-15T17:39:13;19.10;;;2.47;;
16181;SDS011;8197;51.664;7.114;2024-02-15T17:44:17;26.53;;;2.70;;
16181;SDS011;8197;51.664;7.114;2024-02-15T17:49:22;20.07;;;4.13;;
16181;SDS011;8197;51.664;7.114;2024-02-15T17:54:25;18.30;;;3.10;;
16181;SDS011;8197;51.664;7.114;2024-02-15T17:59:28;16.13;;;2.47;;
16181;SDS011;8197;51.664;7.114;2024-02-15T18:04:35;19.00;;;2.67;;
16181;SDS011;8197;51.664;7.114;2024-02-15T18:09:40;16.93;;;2.40;;
16181;SDS011;8197;51.664;7.114;2024-02-15T18:14:43;19.93;;;3.60;;
16181;SDS011;8197;51.664;7.114;2024-02-15T18:19:48;24.80;;;6.10;;
16181;SDS011;8197;51.664;7.114;2024-02-15T18:24:51;16.60;;;2.80;;
16181;SDS011;8197;51.664;7.114;2024-02-15T18:29:55;16.30;;;2.30;;
16181;SDS011;8197;51.664;7.114;2024-02-15T18:35:00;24.00;;;4.43;;
16181;SDS011;8197;51.664;7.114;2024-02-15T18:40:08;16.57;;;2.63;;
16181;SDS011;8197;51.664;7.114;2024-02-15T18:45:25;15.53;;;2.10;;
16181;SDS011;8197;51.664;7.114;2024-02-15T18:50:31;22.20;;;1.80;;
16181;SDS011;8197;51.664;7.114;2024-02-15T18:55:36;20.90;;;2.80;;
16181;SDS011;8197;51.664;7.114;2024-02-15T19:00:40;19.77;;;3.17;;
16181;SDS011;8197;51.664;7.114;2024-02-15T19:05:59;16.37;;;2.13;;
16181;SDS011;8197;51.664;7.114;2024-02-15T19:11:02;17.87;;;3.07;;
16181;SDS011;8197;51.664;7.114;2024-02-15T19:16:05;14.87;;;2.00;;
16181;SDS011;8197;51.664;7.114;2024-02-15T19:21:10;17.43;;;2.47;;
16181;SDS011;8197;51.664;7.114;2024-02-15T19:26:13;15.43;;;2.30;;
16181;SDS011;8197;51.664;7.114;2024-02-15T19:31:16;16.80;;;2.20;;
16181;SDS011;8197;51.664;7.114;2024-02-15T19:36:20;14.33;;;2.00;;
16181;SDS011;8197;51.664;7.114;2024-02-15T19:41:25;17.43;;;2.70;;
16181;SDS011;8197;51.664;7.114;2024-02-15T19:46:29;17.87;;;2.37;;
16181;SDS011;8197;51.664;7.114;2024-02-15T19:51:34;17.17;;;2.60;;
16181;SDS011;8197;51.664;7.114;2024-02-15T19:56:37;16.20;;;2.50;;
16181;SDS011;8197;51.664;7.114;2024-02-15T20:01:40;20.03;;;2.57;;
16181;SDS011;8197;51.664;7.114;2024-02-15T20:06:46;19.17;;;3.50;;
16181;SDS011;8197;51.664;7.114;2024-02-15T20:11:49;17.93;;;2.60;;
16181;SDS011;8197;51.664;7.114;2024-02-15T20:16:52;20.80;;;3.63;;
16181;SDS011;8197;51.664;7.114;2024-02-15T20:21:59;19.30;;;4.50;;
16181;SDS011;8197;51.664;7.114;2024-02-15T20:27:02;24.80;;;6.60;;
16181;SDS011;8197;51.664;7.114;2024-02-15T20:32:06;26.03;;;8.30;;
16181;SDS011;8197;51.664;7.114;2024-02-15T20:37:10;21.00;;;5.03;;
16181;SDS011;8197;51.664;7.114;2024-02-15T20:42:13;21.03;;;3.03;;
16181;SDS011;8197;51.664;7.114;2024-02-15T20:47:17;23.73;;;4.40;;
16181;SDS011;8197;51.664;7.114;2024-02-15T20:52:22;20.90;;;3.80;;
16181;SDS011;8197;51.664;7.114;2024-02-15T20:57:25;23.30;;;5.40;;
16181;SDS011;8197;51.664;7.114;2024-02-15T21:02:28;24.20;;;7.77;;
16181;SDS011;8197;51.664;7.114;2024-02-15T21:07:34;25.97;;;8.33;;
16181;SDS011;8197;51.664;7.114;2024-02-15T21:12:37;24.50;;;8.03;;
16181;SDS011;8197;51.664;7.114;2024-02-15T21:17:41;23.67;;;5.90;;
16181;SDS011;8197;51.664;7.114;2024-02-15T21:22:47;24.87;;;6.00;;
16181;SDS011;8197;51.664;7.114;2024-02-15T21:27:51;20.47;;;5.77;;
16181;SDS011;8197;51.664;7.114;2024-02-15T21:32:54;19.77;;;4.40;;
16181;SDS011;8197;51.664;7.114;2024-02-15T21:37:59;18.03;;;3.73;;
16181;SDS011;8197;51.664;7.114;2024-02-15T21:43:01;17.60;;;3.17;;
16181;SDS011;8197;51.664;7.114;2024-02-15T21:48:06;17.57;;;3.43;;
16181;SDS011;8197;51.664;7.114;2024-02-15T21:53:11;17.27;;;3.57;;
16181;SDS011;8197;51.664;7.114;2024-02-15T21:58:14;18.40;;;2.97;;
16181;SDS011;8197;51.664;7.114;2024-02-15T22:03:17;18.03;;;2.60;;
16181;SDS011;8197;51.664;7.114;2024-02-15T22:08:21;14.60;;;2.37;;
16181;SDS011;8197;51.664;7.114;2024-02-15T22:13:24;20.97;;;3.23;;
16181;SDS011;8197;51.664;7.114;2024-02-15T22:18:27;19.13;;;3.00;;
16181;SDS011;8197;51.664;7.114;2024-02-15T22:23:31;16.67;;;2.20;;
16181;SDS011;8197;51.664;7.114;2024-02-15T22:28:34;16.13;;;1.90;;
16181;SDS011;8197;51.664;7.114;2024-02-15T22:33:37;15.63;;;2.30;;
16181;SDS011;8197;51.664;7.114;2024-02-15T22:38:43;19.50;;;2.33;;
16181;SDS011;8197;51.664;7.114;2024-02-15T22:43:46;20.13;;;1.93;;
16181;SDS011;8197;51.664;7.114;2024-02-15T22:48:49;15.03;;;2.00;;
16181;SDS011;8197;51.664;7.114;2024-02-15T22:53:54;15.80;;;2.10;;
16181;SDS011;8197;51.664;7.114;2024-02-15T22:58:57;14.93;;;1.77;;
16181;SDS011;8197;51.664;7.114;2024-02-15T23:04:00;19.50;;;1.90;;
16181;SDS011;8197;51.664;7.114;2024-02-15T23:09:04;31.00;;;1.70;;
16181;SDS011;8197;51.664;7.114;2024-02-15T23:14:08;18.20;;;2.60;;
16181;SDS011;8197;51.664;7.114;2024-02-15T23:19:11;16.63;;;2.50;;
16181;SDS011;8197;51.664;7.114;2024-02-15T23:24:16;18.13;;;2.00;;
16181;SDS011;8197;51.664;7.114;2024-02-15T23:29:20;15.20;;;1.80;;
16181;SDS011;8197;51.664;7.114;2024-02-15T23:34:23;18.30;;;2.20;;
16181;SDS011;8197;51.664;7.114;2024-02-15T23:39:28;14.73;;;1.77;;
16181;SDS011;8197;51.664;7.114;2024-02-15T23:44:48;14.03;;;1.67;;
16181;SDS011;8197;51.664;7.114;2024-02-15T23:49:51;15.67;;;1.87;;
16181;SDS011;8197;51.664;7.114;2024-02-15T23:54:56;18.03;;;1.97;;
16181;SDS011;8197;51.664;7.114;2024-02-15T23:59:59;14.87;;;1.70;;
